createdAt,value
2019-04-05T00:00:24.637Z,100206.98
2019-04-05T00:05:18.752Z,100217.52
2019-04-05T00:10:13.036Z,100218.83
2019-04-05T00:15:15.077Z,100211.70
2019-04-05T00:20:05.174Z,100212.75
2019-04-05T00:24:59.255Z,100217.92
2019-04-05T00:29:53.235Z,100219.06
2019-04-05T00:34:47.191Z,100214.12
2019-04-05T00:39:41.195Z,100210.70
2019-04-05T00:44:35.175Z,100203.49
2019-04-05T00:49:29.245Z,100199.38
2019-04-05T00:54:23.203Z,100195.47
2019-04-05T00:59:17.143Z,100192.80
2019-04-05T01:04:11.129Z,100193.58
2019-04-05T01:09:06.705Z,100201.27
2019-04-05T01:14:00.672Z,100194.11
2019-04-05T01:18:54.686Z,100187.62
2019-04-05T01:23:51.155Z,100204.55
2019-04-05T01:28:45.215Z,100214.39
2019-04-05T01:33:39.200Z,100206.22
2019-04-05T01:38:33.271Z,100216.80
2019-04-05T01:43:27.453Z,100226.15
2019-04-05T01:48:21.423Z,100223.13
2019-04-05T01:53:15.785Z,100228.61
2019-04-05T01:58:10.086Z,100236.42
2019-04-05T02:03:04.160Z,100235.20
2019-04-05T02:07:58.417Z,100229.09
2019-04-05T02:12:52.531Z,100226.67
2019-04-05T02:17:46.670Z,100230.13
2019-04-05T02:22:40.638Z,100221.66
2019-04-05T02:27:34.699Z,100218.48
2019-04-05T02:32:28.852Z,100209.28
2019-04-05T02:37:22.918Z,100204.16
2019-04-05T02:42:17.697Z,100209.38
2019-04-05T02:47:12.048Z,100206.84
2019-04-05T02:52:06.330Z,100206.70
2019-04-05T02:57:01.028Z,100218.59
2019-04-05T03:01:55.202Z,100225.61
2019-04-05T03:06:50.163Z,100218.75
2019-04-05T03:11:44.224Z,100227.50
2019-04-05T03:16:41.999Z,100231.70
2019-04-05T03:21:39.701Z,100228.50
2019-04-05T03:26:36.198Z,100232.55
2019-04-05T03:31:30.391Z,100233.39
2019-04-05T03:36:24.449Z,100235.28
2019-04-05T03:41:18.507Z,100232.61
2019-04-05T03:46:12.582Z,100236.20
2019-04-05T03:51:07.444Z,100241.30
2019-04-05T03:56:02.246Z,100231.98
2019-04-05T04:00:56.566Z,100232.20
2019-04-05T04:05:50.741Z,100235.94
2019-04-05T04:10:45.939Z,100239.84
2019-04-05T04:15:40.097Z,100249.20
2019-04-05T04:20:41.141Z,100256.52
2019-04-05T04:25:36.059Z,100266.02
2019-04-05T04:30:30.636Z,100268.13
2019-04-05T04:35:24.700Z,100265.88
2019-04-05T04:40:18.969Z,100275.53
2019-04-05T04:45:13.216Z,100277.58
2019-04-05T04:50:07.851Z,100284.22
2019-04-05T04:55:02.523Z,100282.22
2019-04-05T04:59:56.839Z,100290.70
2019-04-05T05:04:51.047Z,100292.77
2019-04-05T05:09:45.509Z,100296.59
2019-04-05T05:14:39.798Z,100296.59
2019-04-05T05:19:33.900Z,100288.64
2019-04-05T05:24:28.067Z,100285.59
2019-04-05T05:29:22.351Z,100292.72
2019-04-05T05:34:16.535Z,100298.82
2019-04-05T05:39:10.601Z,100310.16
2019-04-05T05:44:04.675Z,100300.19
2019-04-05T05:48:58.782Z,100308.59
2019-04-05T05:53:52.870Z,100307.69
2019-04-05T05:58:46.867Z,100316.14
2019-04-05T06:03:40.993Z,100317.34
2019-04-05T06:08:35.271Z,100315.86
2019-04-05T06:13:29.222Z,100321.61
2019-04-05T06:18:23.226Z,100320.02
2019-04-05T06:23:17.483Z,100320.73
2019-04-05T06:28:11.654Z,100323.15
2019-04-05T06:33:05.771Z,100325.11
2019-04-05T06:37:59.842Z,100321.54
2019-04-05T06:42:53.805Z,100326.43
2019-04-05T06:47:47.777Z,100315.36
2019-04-05T06:52:41.787Z,100318.36
2019-04-05T06:57:35.759Z,100319.95
2019-04-05T07:02:29.872Z,100316.69
2019-04-05T07:07:24.034Z,100307.37
2019-04-05T07:12:20.531Z,100307.47
2019-04-05T07:17:14.085Z,100319.09
2019-04-05T07:22:08.071Z,100319.88
2019-04-05T07:27:02.255Z,100323.35
2019-04-05T07:31:56.354Z,100326.49
2019-04-05T07:36:50.426Z,100316.45
2019-04-05T07:41:44.400Z,100320.12
2019-04-05T07:46:38.384Z,100317.48
2019-04-05T07:51:32.361Z,100325.11
2019-04-05T07:56:26.439Z,100328.30
2019-04-05T08:01:20.575Z,100331.67
2019-04-05T08:06:15.509Z,100340.36
2019-04-05T08:11:09.772Z,100336.61
2019-04-05T08:16:03.897Z,100335.42
2019-04-05T08:20:57.913Z,100351.63
2019-04-05T08:25:52.019Z,100342.86
2019-04-05T08:30:45.996Z,100343.13
2019-04-05T08:35:40.076Z,100339.58
2019-04-05T08:40:34.054Z,100345.33
2019-04-05T08:45:28.211Z,100345.27
2019-04-05T08:50:22.209Z,100338.66
2019-04-05T08:55:16.344Z,100339.97
2019-04-05T09:00:10.783Z,100334.45
2019-04-05T09:05:06.674Z,100337.10
2019-04-05T09:10:00.647Z,100339.13
2019-04-05T09:14:54.719Z,100332.27
2019-04-05T09:19:48.710Z,100329.29
2019-04-05T09:24:42.693Z,100325.16
2019-04-05T09:29:36.673Z,100326.76
2019-04-05T09:34:30.990Z,100328.31
2019-04-05T09:39:25.242Z,100331.17
2019-04-05T09:44:19.359Z,100327.50
2019-04-05T09:49:13.324Z,100318.39
2019-04-05T09:54:07.369Z,100316.81
2019-04-05T09:59:01.343Z,100312.03
2019-04-05T10:03:55.464Z,100307.96
2019-04-05T10:08:49.523Z,100306.28
2019-04-05T10:13:43.617Z,100316.42
2019-04-05T10:18:37.613Z,100315.21
2019-04-05T10:23:31.630Z,100315.72
2019-04-05T10:28:25.621Z,100304.67
2019-04-05T10:33:19.618Z,100283.19
2019-04-05T10:38:13.978Z,100286.23
2019-04-05T10:43:08.070Z,100284.88
2019-04-05T10:48:02.362Z,100282.91
2019-04-05T10:52:56.482Z,100290.23
2019-04-05T10:57:50.537Z,100289.48
2019-04-05T11:02:44.731Z,100291.57
2019-04-05T11:07:38.736Z,100292.95
2019-04-05T11:12:32.669Z,100286.84
2019-04-05T11:17:26.650Z,100283.98
2019-04-05T11:22:21.147Z,100284.25
2019-04-05T11:27:15.216Z,100287.75
2019-04-05T11:32:09.302Z,100286.06
2019-04-05T11:37:03.493Z,100288.86
2019-04-05T11:41:58.010Z,100286.73
2019-04-05T11:46:53.294Z,100281.00
2019-04-05T11:51:47.370Z,100285.94
2019-04-05T11:56:41.369Z,100284.01
2019-04-05T12:01:37.288Z,100291.48
2019-04-05T12:06:31.285Z,100283.81
2019-04-05T12:11:25.409Z,100274.32
2019-04-05T12:16:19.519Z,100275.05
2019-04-05T12:21:13.719Z,100269.20
2019-04-05T12:26:07.818Z,100277.94
2019-04-05T12:31:01.921Z,100273.01
2019-04-05T12:35:56.598Z,100270.50
2019-04-05T12:40:51.145Z,100260.66
2019-04-05T12:45:45.303Z,100261.14
2019-04-05T12:50:39.442Z,100260.43
2019-04-05T12:55:33.693Z,100250.66
2019-04-05T13:00:27.795Z,100251.45
2019-04-05T13:05:21.969Z,100260.72
2019-04-05T13:10:16.261Z,100241.19
2019-04-05T13:15:16.594Z,100245.41
2019-04-05T13:20:07.031Z,100242.78
2019-04-05T13:25:01.416Z,100236.30
2019-04-05T13:29:55.488Z,100237.06
2019-04-05T13:34:49.537Z,100225.41
2019-04-05T13:39:43.589Z,100222.69
2019-04-05T13:44:37.616Z,100217.99
2019-04-05T13:49:31.592Z,100215.79
2019-04-05T13:54:25.837Z,100211.75
2019-04-05T13:59:19.924Z,100212.11
2019-04-05T14:04:16.858Z,100201.20
2019-04-05T14:09:10.489Z,100195.95
2019-04-05T14:14:04.936Z,100196.47
2019-04-05T14:18:59.151Z,100194.38
2019-04-05T14:23:53.918Z,100199.58
2019-04-05T14:28:48.137Z,100187.13
2019-04-05T14:33:42.310Z,100191.64
2019-04-05T14:38:36.320Z,100193.66
2019-04-05T14:43:30.438Z,100191.64
2019-04-05T14:48:27.341Z,100179.66
2019-04-05T14:53:20.275Z,100165.25
2019-04-05T14:58:14.380Z,100164.75
2019-04-05T15:03:08.397Z,100159.10
2019-04-05T15:08:02.545Z,100159.36
2019-04-05T15:12:56.627Z,100161.10
2019-04-05T15:17:50.693Z,100160.85
2019-04-05T15:22:44.709Z,100160.19
2019-04-05T15:27:38.903Z,100158.53
2019-04-05T15:32:33.998Z,100164.24
2019-04-05T15:37:31.771Z,100171.03
2019-04-05T15:42:24.054Z,100169.77
2019-04-05T15:47:18.092Z,100175.63
2019-04-05T15:52:18.712Z,100177.93
2019-04-05T15:57:08.090Z,100176.15
2019-04-05T16:02:03.937Z,100175.31
2019-04-05T16:06:58.077Z,100168.46
2019-04-05T16:11:52.257Z,100171.05
2019-04-05T16:16:46.460Z,100171.30
2019-04-05T16:21:40.565Z,100177.51
2019-04-05T16:26:34.791Z,100171.55
2019-04-05T16:31:28.913Z,100175.04
2019-04-05T16:36:23.144Z,100182.84
2019-04-05T16:41:17.307Z,100196.00
2019-04-05T16:46:11.417Z,100195.12
2019-04-05T16:51:05.534Z,100191.30
2019-04-05T16:55:59.754Z,100196.38
2019-04-05T17:00:53.766Z,100197.83
2019-04-05T17:05:47.880Z,100195.39
2019-04-05T17:10:41.860Z,100194.24
2019-04-05T17:15:36.061Z,100199.08
2019-04-05T17:20:30.080Z,100194.95
2019-04-05T17:25:24.202Z,100197.88
2019-04-05T17:30:18.304Z,100191.86
2019-04-05T17:35:12.497Z,100198.42
2019-04-05T17:40:06.900Z,100190.63
2019-04-05T17:45:00.996Z,100194.28
2019-04-05T17:49:54.991Z,100196.41
2019-04-05T17:54:49.084Z,100202.92
2019-04-05T17:59:43.303Z,100205.46
2019-04-05T18:04:37.432Z,100213.30
2019-04-05T18:09:31.466Z,100211.45
2019-04-05T18:14:25.684Z,100211.71
2019-04-05T18:19:19.792Z,100219.44
2019-04-05T18:24:13.793Z,100218.48
2019-04-05T18:29:07.900Z,100223.18
2019-04-05T18:34:01.981Z,100230.75
2019-04-05T18:38:56.187Z,100220.80
2019-04-05T18:43:50.167Z,100230.03
2019-04-05T18:48:44.283Z,100229.42
2019-04-05T18:53:38.772Z,100225.95
2019-04-05T18:58:32.772Z,100232.38
2019-04-05T19:03:26.786Z,100239.56
2019-04-05T19:08:21.023Z,100238.84
2019-04-05T19:13:15.300Z,100240.20
2019-04-05T19:18:09.490Z,100226.73
2019-04-05T19:23:03.549Z,100229.55
2019-04-05T19:27:57.669Z,100230.24
2019-04-05T19:52:35.774Z,100234.63
2019-04-05T19:57:29.746Z,100222.33
2019-04-05T20:02:24.168Z,100227.13
2019-04-05T20:07:18.315Z,100225.47
2019-04-05T20:12:12.499Z,100226.67
2019-04-05T20:17:08.177Z,100223.42
2019-04-05T20:22:02.543Z,100216.45
2019-04-05T20:26:56.663Z,100218.73
2019-04-05T20:31:50.777Z,100212.25
2019-04-05T20:36:44.772Z,100209.46
2019-04-05T20:41:38.883Z,100212.59
2019-04-05T20:46:32.836Z,100212.52
2019-04-05T20:51:26.935Z,100215.62
2019-04-05T20:56:20.925Z,100209.86
2019-04-05T21:01:15.112Z,100216.25
2019-04-05T21:06:09.190Z,100217.83
2019-04-05T21:11:03.380Z,100216.16
2019-04-05T21:15:57.686Z,100211.44
2019-04-05T21:20:51.933Z,100215.09
2019-04-05T21:25:45.956Z,100208.80
2019-04-05T21:30:40.081Z,100208.19
2019-04-05T21:35:34.322Z,100209.54
2019-04-05T21:40:28.310Z,100203.23
2019-04-05T21:45:22.501Z,100202.17
2019-04-05T21:50:16.479Z,100206.66
2019-04-05T21:55:10.863Z,100198.58
2019-04-05T22:00:11.750Z,100195.94
2019-04-05T22:05:06.191Z,100196.63
2019-04-05T22:10:00.298Z,100190.35
2019-04-05T22:14:54.281Z,100193.37
2019-04-05T22:19:48.287Z,100191.44
2019-04-05T22:24:42.389Z,100197.34
2019-04-05T22:29:36.455Z,100194.98
2019-04-05T22:34:30.465Z,100197.34
2019-04-05T22:39:24.501Z,100195.30
2019-04-05T22:44:18.476Z,100198.32
2019-04-05T22:49:12.447Z,100198.30
2019-04-05T22:54:06.621Z,100192.77
2019-04-05T22:59:00.611Z,100189.31
2019-04-05T23:03:54.679Z,100182.30
2019-04-05T23:08:48.674Z,100181.20
2019-04-05T23:13:42.817Z,100178.92
2019-04-05T23:18:36.935Z,100180.39
2019-04-05T23:23:30.914Z,100182.89
2019-04-05T23:28:25.060Z,100184.30
2019-04-05T23:33:19.147Z,100174.12
2019-04-05T23:38:13.417Z,100180.51
2019-04-05T23:43:07.401Z,100180.33
2019-04-05T23:48:01.392Z,100180.67
2019-04-05T23:52:55.363Z,100170.84
2019-04-05T23:57:49.367Z,100179.23
